EIN45W EIDW-EGGP
Flight info
| Callsign | EIN45W |
|---|---|
| Flight time | N/A |
| Altitude | 13000 |
| Route | BOFUM1E BOFUM |
| Aircraft | A21N/M-SDE2E3FGHIRWXY/LB1 |
Departure
| Time | 2026-05-03 22:28 |
|---|---|
| Airport | Dublin Airport (EIDW) |
Arrival
| Time | N/A |
|---|---|
| Airport | Liverpool John Lennon Airport (EGGP) |
| Time | Latitude | Longitude | Altitude | Speed | Heading |
|---|---|---|---|---|---|
| 2026-05-03 22:08 | 53.43029 | -6.25072 | 224 ft | 0 kts | 5° |
| 2026-05-03 22:15 | 53.43020 | -6.25073 | 224 ft | 3 kts | 5° |
| 2026-05-03 22:15 | 53.42998 | -6.25076 | 223 ft | 3 kts | 5° |
| 2026-05-03 22:15 | 53.42976 | -6.25080 | 224 ft | 3 kts | 357° |
| 2026-05-03 22:15 | 53.42954 | -6.25074 | 220 ft | 3 kts | 329° |
| 2026-05-03 22:16 | 53.42947 | -6.25069 | 220 ft | 2 kts | 315° |
| 2026-05-03 22:16 | 53.42955 | -6.25087 | 223 ft | 2 kts | 305° |
| 2026-05-03 22:16 | 53.42961 | -6.25107 | 223 ft | 2 kts | 294° |
| 2026-05-03 22:16 | 53.42961 | -6.25114 | 223 ft | 0 kts | 279° |
| 2026-05-03 22:19 | 53.42962 | -6.25129 | 221 ft | 4 kts | 278° |
| 2026-05-03 22:19 | 53.42967 | -6.25215 | 221 ft | 8 kts | 275° |
| 2026-05-03 22:20 | 53.42962 | -6.25241 | 222 ft | 9 kts | 256° |
| 2026-05-03 22:20 | 53.42914 | -6.25379 | 223 ft | 17 kts | 228° |
| 2026-05-03 22:20 | 53.42856 | -6.25473 | 224 ft | 12 kts | 224° |
| 2026-05-03 22:20 | 53.42782 | -6.25598 | 223 ft | 19 kts | 226° |
| 2026-05-03 22:21 | 53.42664 | -6.25727 | 219 ft | 22 kts | 180° |
| 2026-05-03 22:21 | 53.42586 | -6.25689 | 220 ft | 0 kts | 152° |
| 2026-05-03 22:21 | 53.42574 | -6.25681 | 219 ft | 4 kts | 159° |
| 2026-05-03 22:21 | 53.42543 | -6.25699 | 220 ft | 7 kts | 204° |
| 2026-05-03 22:22 | 53.42489 | -6.25774 | 215 ft | 12 kts | 229° |
| 2026-05-03 22:22 | 53.42425 | -6.25893 | 225 ft | 15 kts | 227° |
| 2026-05-03 22:22 | 53.42345 | -6.26026 | 220 ft | 17 kts | 224° |
| 2026-05-03 22:22 | 53.42277 | -6.26183 | 225 ft | 17 kts | 245° |
| 2026-05-03 22:23 | 53.42272 | -6.26378 | 227 ft | 18 kts | 274° |
| 2026-05-03 22:23 | 53.42283 | -6.26585 | 231 ft | 18 kts | 276° |
| 2026-05-03 22:23 | 53.42298 | -6.26810 | 231 ft | 21 kts | 275° |
| 2026-05-03 22:23 | 53.42315 | -6.27073 | 233 ft | 23 kts | 275° |
| 2026-05-03 22:24 | 53.42330 | -6.27358 | 230 ft | 26 kts | 275° |
| 2026-05-03 22:24 | 53.42343 | -6.27663 | 236 ft | 26 kts | 275° |
| 2026-05-03 22:24 | 53.42358 | -6.27965 | 242 ft | 26 kts | 275° |
| 2026-05-03 22:24 | 53.42372 | -6.28228 | 248 ft | 17 kts | 268° |
| 2026-05-03 22:25 | 53.42294 | -6.28317 | 248 ft | 13 kts | 166° |
| 2026-05-03 22:25 | 53.42244 | -6.28227 | 247 ft | 11 kts | 126° |
| 2026-05-03 22:25 | 53.42195 | -6.28085 | 243 ft | 17 kts | 107° |
| 2026-05-03 22:25 | 53.42184 | -6.27871 | 241 ft | 20 kts | 92° |
| 2026-05-03 22:26 | 53.42170 | -6.27640 | 235 ft | 0 kts | 99° |
| 2026-05-03 22:27 | 53.42166 | -6.27589 | 234 ft | 28 kts | 97° |
| 2026-05-03 22:27 | 53.42122 | -6.26766 | 231 ft | 110 kts | 95° |
| 2026-05-03 22:28 | 53.42048 | -6.25112 | 243 ft | 169 kts | 92° |
| 2026-05-03 22:28 | 53.41944 | -6.23215 | 1107 ft | 157 kts | 94° |
| 2026-05-03 22:28 | 53.41818 | -6.21442 | 2040 ft | 154 kts | 95° |
| 2026-05-03 22:28 | 53.41703 | -6.19550 | 2620 ft | 175 kts | 93° |
| 2026-05-03 22:29 | 53.41600 | -6.17406 | 3432 ft | 182 kts | 92° |
| 2026-05-03 22:29 | 53.41523 | -6.15496 | 4879 ft | 165 kts | 92° |
| 2026-05-03 22:29 | 53.41423 | -6.13418 | 5583 ft | 182 kts | 94° |
| 2026-05-03 22:29 | 53.41287 | -6.11072 | 5828 ft | 233 kts | 94° |
| 2026-05-03 22:30 | 53.41113 | -6.08148 | 6307 ft | 263 kts | 94° |
| 2026-05-03 22:30 | 53.40929 | -6.05059 | 7315 ft | 269 kts | 94° |
| 2026-05-03 22:30 | 53.41006 | -6.01922 | 8351 ft | 274 kts | 74° |
| 2026-05-03 22:30 | 53.41708 | -5.98929 | 9359 ft | 281 kts | 66° |
| 2026-05-03 22:31 | 53.42498 | -5.95880 | 10359 ft | 288 kts | 66° |
| 2026-05-03 22:31 | 53.43314 | -5.92737 | 10866 ft | 311 kts | 66° |
| 2026-05-03 22:31 | 53.44198 | -5.89302 | 11181 ft | 331 kts | 67° |
| 2026-05-03 22:31 | 53.45117 | -5.85693 | 11853 ft | 339 kts | 67° |
| 2026-05-03 22:32 | 53.46046 | -5.82029 | 12592 ft | 344 kts | 67° |
| 2026-05-03 22:32 | 53.46964 | -5.78305 | 12899 ft | 347 kts | 68° |
| 2026-05-03 22:32 | 53.47868 | -5.74538 | 12995 ft | 347 kts | 68° |
| 2026-05-03 22:32 | 53.48767 | -5.70770 | 12992 ft | 347 kts | 68° |
| 2026-05-03 22:33 | 53.49664 | -5.67009 | 12994 ft | 348 kts | 68° |
| 2026-05-03 22:33 | 53.50553 | -5.63290 | 12994 ft | 348 kts | 69° |
| 2026-05-03 22:33 | 53.51457 | -5.59513 | 12995 ft | 348 kts | 68° |
| 2026-05-03 22:33 | 53.52351 | -5.55776 | 12991 ft | 348 kts | 69° |
| 2026-05-03 22:34 | 53.53168 | -5.51947 | 12992 ft | 348 kts | 76° |
| 2026-05-03 22:34 | 53.53588 | -5.47949 | 12990 ft | 348 kts | 86° |
| 2026-05-03 22:34 | 53.53592 | -5.43892 | 12993 ft | 348 kts | 93° |
| 2026-05-03 22:34 | 53.53475 | -5.39824 | 12996 ft | 348 kts | 93° |
| 2026-05-03 22:35 | 53.53356 | -5.35756 | 12997 ft | 348 kts | 94° |
| 2026-05-03 22:35 | 53.53253 | -5.33078 | 12994 ft | 348 kts | 95° |